sensor_id;sensor_type;location;lat;lon;timestamp;temperature;humidity
44855;DHT22;30591;48.228;16.398;2022-07-05T00:02:11;23.40;99.90
44855;DHT22;30591;48.228;16.398;2022-07-05T00:04:38;23.30;99.90
44855;DHT22;30591;48.228;16.398;2022-07-05T00:07:05;23.20;99.90
44855;DHT22;30591;48.228;16.398;2022-07-05T00:09:55;22.90;99.90
44855;DHT22;30591;48.228;16.398;2022-07-05T00:12:25;23.00;99.90
44855;DHT22;30591;48.228;16.398;2022-07-05T00:14:53;23.10;99.90
44855;DHT22;30591;48.228;16.398;2022-07-05T00:17:20;23.10;99.90
44855;DHT22;30591;48.228;16.398;2022-07-05T00:19:47;23.20;99.90
44855;DHT22;30591;48.228;16.398;2022-07-05T00:22:14;23.10;99.90
44855;DHT22;30591;48.228;16.398;2022-07-05T00:24:41;23.20;99.90
44855;DHT22;30591;48.228;16.398;2022-07-05T00:27:08;23.30;99.90
44855;DHT22;30591;48.228;16.398;2022-07-05T00:29:35;23.30;99.90
44855;DHT22;30591;48.228;16.398;2022-07-05T00:32:02;23.20;99.90
44855;DHT22;30591;48.228;16.398;2022-07-05T00:34:29;23.20;99.90
44855;DHT22;30591;48.228;16.398;2022-07-05T00:36:55;23.30;99.90
44855;DHT22;30591;48.228;16.398;2022-07-05T00:39:22;23.30;99.90
44855;DHT22;30591;48.228;16.398;2022-07-05T00:41:49;23.30;99.90
44855;DHT22;30591;48.228;16.398;2022-07-05T00:44:16;23.10;99.90
44855;DHT22;30591;48.228;16.398;2022-07-05T00:46:44;23.20;99.90
44855;DHT22;30591;48.228;16.398;2022-07-05T00:49:11;23.30;99.90
44855;DHT22;30591;48.228;16.398;2022-07-05T00:51:38;23.30;99.90
44855;DHT22;30591;48.228;16.398;2022-07-05T00:54:30;23.30;99.90
44855;DHT22;30591;48.228;16.398;2022-07-05T00:56:58;23.30;99.90
44855;DHT22;30591;48.228;16.398;2022-07-05T00:59:29;23.10;99.90
44855;DHT22;30591;48.228;16.398;2022-07-05T01:01:57;23.30;99.90
44855;DHT22;30591;48.228;16.398;2022-07-05T01:04:25;23.40;99.90
44855;DHT22;30591;48.228;16.398;2022-07-05T01:06:53;23.40;99.90
44855;DHT22;30591;48.228;16.398;2022-07-05T01:09:21;23.30;99.90
44855;DHT22;30591;48.228;16.398;2022-07-05T01:11:50;23.40;99.90
44855;DHT22;30591;48.228;16.398;2022-07-05T01:14:22;23.40;99.90
44855;DHT22;30591;48.228;16.398;2022-07-05T01:16:52;23.20;99.90
44855;DHT22;30591;48.228;16.398;2022-07-05T01:19:20;23.10;99.90
44855;DHT22;30591;48.228;16.398;2022-07-05T01:21:48;23.10;99.90
44855;DHT22;30591;48.228;16.398;2022-07-05T01:24:17;22.70;99.90
44855;DHT22;30591;48.228;16.398;2022-07-05T01:26:49;22.50;99.90
44855;DHT22;30591;48.228;16.398;2022-07-05T01:29:16;22.70;99.90
44855;DHT22;30591;48.228;16.398;2022-07-05T01:31:44;22.90;99.90
44855;DHT22;30591;48.228;16.398;2022-07-05T01:34:11;22.80;99.90
44855;DHT22;30591;48.228;16.398;2022-07-05T01:36:38;22.90;99.90
44855;DHT22;30591;48.228;16.398;2022-07-05T01:39:07;23.00;99.90
44855;DHT22;30591;48.228;16.398;2022-07-05T01:41:34;23.00;99.90
44855;DHT22;30591;48.228;16.398;2022-07-05T01:44:02;23.00;99.90
44855;DHT22;30591;48.228;16.398;2022-07-05T01:46:32;23.10;99.90
44855;DHT22;30591;48.228;16.398;2022-07-05T01:49:08;23.20;99.90
44855;DHT22;30591;48.228;16.398;2022-07-05T01:51:48;23.10;99.90
44855;DHT22;30591;48.228;16.398;2022-07-05T01:54:15;22.90;99.90
44855;DHT22;30591;48.228;16.398;2022-07-05T01:56:42;22.80;99.90
44855;DHT22;30591;48.228;16.398;2022-07-05T01:59:09;23.00;99.90
44855;DHT22;30591;48.228;16.398;2022-07-05T02:01:37;22.90;99.90
44855;DHT22;30591;48.228;16.398;2022-07-05T02:04:08;22.90;99.90
44855;DHT22;30591;48.228;16.398;2022-07-05T02:06:36;23.00;99.90
44855;DHT22;30591;48.228;16.398;2022-07-05T02:09:06;23.00;99.90
44855;DHT22;30591;48.228;16.398;2022-07-05T02:11:34;23.10;99.90
44855;DHT22;30591;48.228;16.398;2022-07-05T02:14:03;22.70;99.90
44855;DHT22;30591;48.228;16.398;2022-07-05T02:16:33;22.80;99.90
44855;DHT22;30591;48.228;16.398;2022-07-05T02:19:00;22.80;99.90
44855;DHT22;30591;48.228;16.398;2022-07-05T02:21:31;22.90;99.90
44855;DHT22;30591;48.228;16.398;2022-07-05T02:23:58;22.90;99.90
44855;DHT22;30591;48.228;16.398;2022-07-05T02:26:29;22.90;99.90
44855;DHT22;30591;48.228;16.398;2022-07-05T02:28:57;22.40;99.90
44855;DHT22;30591;48.228;16.398;2022-07-05T02:31:27;22.20;99.90
44855;DHT22;30591;48.228;16.398;2022-07-05T02:33:55;22.30;99.90
44855;DHT22;30591;48.228;16.398;2022-07-05T02:36:24;22.20;99.90
44855;DHT22;30591;48.228;16.398;2022-07-05T02:38:51;22.20;99.90
44855;DHT22;30591;48.228;16.398;2022-07-05T02:41:19;22.40;99.90
44855;DHT22;30591;48.228;16.398;2022-07-05T02:43:49;22.40;99.90
44855;DHT22;30591;48.228;16.398;2022-07-05T02:46:19;22.40;99.90
44855;DHT22;30591;48.228;16.398;2022-07-05T02:48:46;22.50;99.90
44855;DHT22;30591;48.228;16.398;2022-07-05T02:51:13;22.50;99.90
44855;DHT22;30591;48.228;16.398;2022-07-05T02:53:44;22.50;99.90
44855;DHT22;30591;48.228;16.398;2022-07-05T02:56:13;22.50;99.90
44855;DHT22;30591;48.228;16.398;2022-07-05T02:58:40;22.60;99.90
44855;DHT22;30591;48.228;16.398;2022-07-05T03:01:08;22.50;99.90
44855;DHT22;30591;48.228;16.398;2022-07-05T03:03:38;22.50;99.90
44855;DHT22;30591;48.228;16.398;2022-07-05T03:06:06;22.30;99.90
44855;DHT22;30591;48.228;16.398;2022-07-05T03:08:35;22.30;99.90
44855;DHT22;30591;48.228;16.398;2022-07-05T03:11:02;22.30;99.90
44855;DHT22;30591;48.228;16.398;2022-07-05T03:13:30;22.30;99.90
44855;DHT22;30591;48.228;16.398;2022-07-05T03:15:57;22.30;99.90
44855;DHT22;30591;48.228;16.398;2022-07-05T03:18:24;22.30;99.90
44855;DHT22;30591;48.228;16.398;2022-07-05T03:20:52;22.30;99.90
44855;DHT22;30591;48.228;16.398;2022-07-05T03:23:23;22.40;99.90
44855;DHT22;30591;48.228;16.398;2022-07-05T03:25:55;22.30;99.90
44855;DHT22;30591;48.228;16.398;2022-07-05T03:28:22;22.20;99.90
44855;DHT22;30591;48.228;16.398;2022-07-05T03:30:51;22.30;99.90
44855;DHT22;30591;48.228;16.398;2022-07-05T03:33:19;22.20;99.90
44855;DHT22;30591;48.228;16.398;2022-07-05T03:35:47;22.30;99.90
44855;DHT22;30591;48.228;16.398;2022-07-05T03:38:17;22.00;99.90
44855;DHT22;30591;48.228;16.398;2022-07-05T03:40:44;22.00;99.90
44855;DHT22;30591;48.228;16.398;2022-07-05T03:43:12;22.10;99.90
44855;DHT22;30591;48.228;16.398;2022-07-05T03:45:41;21.90;99.90
44855;DHT22;30591;48.228;16.398;2022-07-05T03:48:08;21.90;99.90
44855;DHT22;30591;48.228;16.398;2022-07-05T03:50:56;22.00;99.90
44855;DHT22;30591;48.228;16.398;2022-07-05T03:53:23;22.10;99.90
44855;DHT22;30591;48.228;16.398;2022-07-05T03:55:50;22.20;99.90
44855;DHT22;30591;48.228;16.398;2022-07-05T03:58:17;22.10;99.90
44855;DHT22;30591;48.228;16.398;2022-07-05T04:00:45;22.10;99.90
44855;DHT22;30591;48.228;16.398;2022-07-05T04:03:17;22.00;99.90
44855;DHT22;30591;48.228;16.398;2022-07-05T04:05:45;21.90;99.90
44855;DHT22;30591;48.228;16.398;2022-07-05T04:08:12;21.80;99.90
44855;DHT22;30591;48.228;16.398;2022-07-05T04:10:43;21.80;99.90
44855;DHT22;30591;48.228;16.398;2022-07-05T04:13:12;21.90;99.90
44855;DHT22;30591;48.228;16.398;2022-07-05T04:15:39;22.00;99.90
44855;DHT22;30591;48.228;16.398;2022-07-05T04:18:06;22.00;99.90
44855;DHT22;30591;48.228;16.398;2022-07-05T04:20:36;22.00;99.90
44855;DHT22;30591;48.228;16.398;2022-07-05T04:23:09;22.00;99.90
44855;DHT22;30591;48.228;16.398;2022-07-05T04:25:36;21.80;99.90
44855;DHT22;30591;48.228;16.398;2022-07-05T04:28:13;21.80;99.90
44855;DHT22;30591;48.228;16.398;2022-07-05T04:30:41;21.90;99.90
44855;DHT22;30591;48.228;16.398;2022-07-05T04:33:10;21.80;99.90
44855;DHT22;30591;48.228;16.398;2022-07-05T04:35:38;21.90;99.90
44855;DHT22;30591;48.228;16.398;2022-07-05T04:38:05;21.90;99.90
44855;DHT22;30591;48.228;16.398;2022-07-05T04:40:35;22.00;99.90
44855;DHT22;30591;48.228;16.398;2022-07-05T04:43:02;22.00;99.90
44855;DHT22;30591;48.228;16.398;2022-07-05T04:45:29;21.90;99.90
44855;DHT22;30591;48.228;16.398;2022-07-05T04:47:57;21.90;99.90
44855;DHT22;30591;48.228;16.398;2022-07-05T04:50:25;21.90;99.90
44855;DHT22;30591;48.228;16.398;2022-07-05T04:52:52;21.90;99.90
44855;DHT22;30591;48.228;16.398;2022-07-05T04:55:19;21.80;99.90
44855;DHT22;30591;48.228;16.398;2022-07-05T04:57:46;21.90;99.90
44855;DHT22;30591;48.228;16.398;2022-07-05T05:00:14;22.00;99.90
44855;DHT22;30591;48.228;16.398;2022-07-05T05:02:41;21.90;99.90
44855;DHT22;30591;48.228;16.398;2022-07-05T05:05:08;22.00;99.90
44855;DHT22;30591;48.228;16.398;2022-07-05T05:07:36;22.00;99.90
44855;DHT22;30591;48.228;16.398;2022-07-05T05:10:05;22.00;99.90
44855;DHT22;30591;48.228;16.398;2022-07-05T05:12:32;21.90;99.90
44855;DHT22;30591;48.228;16.398;2022-07-05T05:14:59;21.80;99.90
44855;DHT22;30591;48.228;16.398;2022-07-05T05:17:35;21.90;99.90
44855;DHT22;30591;48.228;16.398;2022-07-05T05:20:09;21.90;99.90
44855;DHT22;30591;48.228;16.398;2022-07-05T05:22:37;22.00;99.90
44855;DHT22;30591;48.228;16.398;2022-07-05T05:25:04;21.90;99.90
44855;DHT22;30591;48.228;16.398;2022-07-05T05:27:31;21.70;99.90
44855;DHT22;30591;48.228;16.398;2022-07-05T05:29:58;21.80;99.90
44855;DHT22;30591;48.228;16.398;2022-07-05T05:32:25;21.70;99.90
44855;DHT22;30591;48.228;16.398;2022-07-05T05:34:52;21.80;99.90
44855;DHT22;30591;48.228;16.398;2022-07-05T05:37:19;21.60;99.90
44855;DHT22;30591;48.228;16.398;2022-07-05T05:39:46;21.60;99.90
44855;DHT22;30591;48.228;16.398;2022-07-05T05:42:13;21.60;99.90
44855;DHT22;30591;48.228;16.398;2022-07-05T05:44:40;21.60;99.90
44855;DHT22;30591;48.228;16.398;2022-07-05T05:47:07;21.60;99.90
44855;DHT22;30591;48.228;16.398;2022-07-05T05:49:40;21.60;99.90
44855;DHT22;30591;48.228;16.398;2022-07-05T05:52:08;21.50;99.90
44855;DHT22;30591;48.228;16.398;2022-07-05T05:54:34;21.50;99.90
44855;DHT22;30591;48.228;16.398;2022-07-05T05:57:02;21.50;99.90
44855;DHT22;30591;48.228;16.398;2022-07-05T05:59:28;21.60;99.90
44855;DHT22;30591;48.228;16.398;2022-07-05T06:01:55;21.40;99.90
44855;DHT22;30591;48.228;16.398;2022-07-05T06:04:22;21.50;99.90
44855;DHT22;30591;48.228;16.398;2022-07-05T06:06:49;21.40;99.90
44855;DHT22;30591;48.228;16.398;2022-07-05T06:09:16;21.50;99.90
44855;DHT22;30591;48.228;16.398;2022-07-05T06:11:43;21.50;99.90
44855;DHT22;30591;48.228;16.398;2022-07-05T06:14:10;21.50;99.90
44855;DHT22;30591;48.228;16.398;2022-07-05T06:16:38;21.50;99.90
44855;DHT22;30591;48.228;16.398;2022-07-05T06:19:05;21.60;99.90
44855;DHT22;30591;48.228;16.398;2022-07-05T06:21:32;21.50;99.90
44855;DHT22;30591;48.228;16.398;2022-07-05T06:23:58;21.50;99.90
44855;DHT22;30591;48.228;16.398;2022-07-05T06:26:25;21.50;99.90
44855;DHT22;30591;48.228;16.398;2022-07-05T06:28:52;21.60;99.90
44855;DHT22;30591;48.228;16.398;2022-07-05T06:31:19;21.60;99.90
44855;DHT22;30591;48.228;16.398;2022-07-05T06:33:46;21.60;99.90
44855;DHT22;30591;48.228;16.398;2022-07-05T06:36:13;21.50;99.90
44855;DHT22;30591;48.228;16.398;2022-07-05T06:38:39;21.50;99.90
44855;DHT22;30591;48.228;16.398;2022-07-05T06:41:06;21.60;99.90
44855;DHT22;30591;48.228;16.398;2022-07-05T06:43:33;21.70;99.90
44855;DHT22;30591;48.228;16.398;2022-07-05T06:46:02;21.70;99.90
44855;DHT22;30591;48.228;16.398;2022-07-05T06:48:29;21.80;99.90
44855;DHT22;30591;48.228;16.398;2022-07-05T06:50:56;21.80;99.90
44855;DHT22;30591;48.228;16.398;2022-07-05T06:53:23;21.70;99.90
44855;DHT22;30591;48.228;16.398;2022-07-05T06:55:50;21.70;99.90
44855;DHT22;30591;48.228;16.398;2022-07-05T06:58:22;21.70;99.90
44855;DHT22;30591;48.228;16.398;2022-07-05T07:00:49;21.80;99.90
44855;DHT22;30591;48.228;16.398;2022-07-05T07:03:36;21.70;99.90
44855;DHT22;30591;48.228;16.398;2022-07-05T07:06:23;21.80;99.90
44855;DHT22;30591;48.228;16.398;2022-07-05T07:08:50;21.70;99.90
44855;DHT22;30591;48.228;16.398;2022-07-05T07:11:35;21.70;99.90
44855;DHT22;30591;48.228;16.398;2022-07-05T07:14:02;21.80;99.90
44855;DHT22;30591;48.228;16.398;2022-07-05T07:16:29;21.80;99.90
44855;DHT22;30591;48.228;16.398;2022-07-05T07:18:56;21.80;99.90
44855;DHT22;30591;48.228;16.398;2022-07-05T07:21:41;21.90;99.90
44855;DHT22;30591;48.228;16.398;2022-07-05T07:24:09;21.80;99.90
44855;DHT22;30591;48.228;16.398;2022-07-05T07:26:36;21.80;99.90
44855;DHT22;30591;48.228;16.398;2022-07-05T07:29:22;21.80;99.90
44855;DHT22;30591;48.228;16.398;2022-07-05T07:31:49;21.80;99.90
44855;DHT22;30591;48.228;16.398;2022-07-05T07:34:16;21.80;99.90
44855;DHT22;30591;48.228;16.398;2022-07-05T07:36:43;21.90;99.90
44855;DHT22;30591;48.228;16.398;2022-07-05T07:39:10;21.90;99.90
44855;DHT22;30591;48.228;16.398;2022-07-05T07:41:38;22.00;99.90
44855;DHT22;30591;48.228;16.398;2022-07-05T07:44:05;22.10;99.90
44855;DHT22;30591;48.228;16.398;2022-07-05T07:46:32;22.10;99.90
44855;DHT22;30591;48.228;16.398;2022-07-05T07:48:59;22.00;99.90
44855;DHT22;30591;48.228;16.398;2022-07-05T07:51:26;22.10;99.90
44855;DHT22;30591;48.228;16.398;2022-07-05T07:53:54;22.10;99.90
44855;DHT22;30591;48.228;16.398;2022-07-05T07:56:44;22.30;99.90
44855;DHT22;30591;48.228;16.398;2022-07-05T07:59:11;22.10;99.90
44855;DHT22;30591;48.228;16.398;2022-07-05T08:01:38;22.20;99.90
44855;DHT22;30591;48.228;16.398;2022-07-05T08:04:11;22.30;99.90
44855;DHT22;30591;48.228;16.398;2022-07-05T08:06:40;22.30;99.90
44855;DHT22;30591;48.228;16.398;2022-07-05T08:09:07;22.00;99.90
44855;DHT22;30591;48.228;16.398;2022-07-05T08:11:41;22.10;99.90
44855;DHT22;30591;48.228;16.398;2022-07-05T08:14:08;22.20;99.90
44855;DHT22;30591;48.228;16.398;2022-07-05T08:16:35;22.10;99.90
44855;DHT22;30591;48.228;16.398;2022-07-05T08:19:02;22.20;99.90
44855;DHT22;30591;48.228;16.398;2022-07-05T08:21:48;22.30;99.90
44855;DHT22;30591;48.228;16.398;2022-07-05T08:24:15;22.30;99.90
44855;DHT22;30591;48.228;16.398;2022-07-05T08:26:42;22.30;99.90
44855;DHT22;30591;48.228;16.398;2022-07-05T08:29:11;22.20;99.90
44855;DHT22;30591;48.228;16.398;2022-07-05T08:31:40;22.20;99.90
44855;DHT22;30591;48.228;16.398;2022-07-05T08:34:07;22.10;99.90
44855;DHT22;30591;48.228;16.398;2022-07-05T08:36:35;22.00;99.90
44855;DHT22;30591;48.228;16.398;2022-07-05T08:39:03;22.10;99.90
44855;DHT22;30591;48.228;16.398;2022-07-05T08:41:35;22.20;99.90
44855;DHT22;30591;48.228;16.398;2022-07-05T08:44:03;22.20;99.90
44855;DHT22;30591;48.228;16.398;2022-07-05T08:46:31;22.30;99.90
44855;DHT22;30591;48.228;16.398;2022-07-05T08:49:01;22.30;99.90
44855;DHT22;30591;48.228;16.398;2022-07-05T08:51:39;22.20;99.90
44855;DHT22;30591;48.228;16.398;2022-07-05T08:54:08;22.10;99.90
44855;DHT22;30591;48.228;16.398;2022-07-05T08:56:36;22.20;99.90
44855;DHT22;30591;48.228;16.398;2022-07-05T08:59:23;22.30;99.90
44855;DHT22;30591;48.228;16.398;2022-07-05T09:01:50;22.20;99.90
44855;DHT22;30591;48.228;16.398;2022-07-05T09:04:17;22.20;99.90
44855;DHT22;30591;48.228;16.398;2022-07-05T09:06:46;22.00;99.90
44855;DHT22;30591;48.228;16.398;2022-07-05T09:09:17;21.90;99.90
44855;DHT22;30591;48.228;16.398;2022-07-05T09:11:45;22.00;99.90
44855;DHT22;30591;48.228;16.398;2022-07-05T09:14:35;21.90;99.90
44855;DHT22;30591;48.228;16.398;2022-07-05T09:17:02;21.90;99.90
44855;DHT22;30591;48.228;16.398;2022-07-05T09:19:29;21.80;99.90
44855;DHT22;30591;48.228;16.398;2022-07-05T09:22:05;21.80;99.90
44855;DHT22;30591;48.228;16.398;2022-07-05T09:24:42;21.60;99.90
44855;DHT22;30591;48.228;16.398;2022-07-05T09:27:10;21.70;99.90
44855;DHT22;30591;48.228;16.398;2022-07-05T09:29:37;21.60;99.90
44855;DHT22;30591;48.228;16.398;2022-07-05T09:32:24;21.60;99.90
44855;DHT22;30591;48.228;16.398;2022-07-05T09:34:51;21.60;99.90
44855;DHT22;30591;48.228;16.398;2022-07-05T09:37:18;21.70;99.90
44855;DHT22;30591;48.228;16.398;2022-07-05T09:39:45;21.60;99.90
44855;DHT22;30591;48.228;16.398;2022-07-05T09:44:52;21.40;99.90
44855;DHT22;30591;48.228;16.398;2022-07-05T09:47:22;21.40;99.90
44855;DHT22;30591;48.228;16.398;2022-07-05T09:49:51;21.30;99.90
44855;DHT22;30591;48.228;16.398;2022-07-05T09:52:41;21.30;99.90
44855;DHT22;30591;48.228;16.398;2022-07-05T09:55:14;21.30;99.90
44855;DHT22;30591;48.228;16.398;2022-07-05T09:57:46;21.40;99.90
44855;DHT22;30591;48.228;16.398;2022-07-05T10:00:19;21.50;99.90
44855;DHT22;30591;48.228;16.398;2022-07-05T10:05:17;21.40;99.90
44855;DHT22;30591;48.228;16.398;2022-07-05T10:07:46;21.20;99.90
44855;DHT22;30591;48.228;16.398;2022-07-05T10:10:36;21.30;99.90
44855;DHT22;30591;48.228;16.398;2022-07-05T10:13:04;21.20;99.90
44855;DHT22;30591;48.228;16.398;2022-07-05T10:15:34;21.20;99.90
44855;DHT22;30591;48.228;16.398;2022-07-05T10:18:07;21.20;99.90
44855;DHT22;30591;48.228;16.398;2022-07-05T10:20:41;21.10;99.90
44855;DHT22;30591;48.228;16.398;2022-07-05T10:23:11;21.10;99.90
44855;DHT22;30591;48.228;16.398;2022-07-05T10:25:40;21.20;99.90
44855;DHT22;30591;48.228;16.398;2022-07-05T10:28:07;21.20;99.90
44855;DHT22;30591;48.228;16.398;2022-07-05T10:30:35;21.30;99.90
44855;DHT22;30591;48.228;16.398;2022-07-05T10:33:03;21.40;99.90
44855;DHT22;30591;48.228;16.398;2022-07-05T10:35:30;21.30;99.90
44855;DHT22;30591;48.228;16.398;2022-07-05T10:37:59;21.20;99.90
44855;DHT22;30591;48.228;16.398;2022-07-05T10:40:26;21.10;99.90
44855;DHT22;30591;48.228;16.398;2022-07-05T10:43:00;21.10;99.90
44855;DHT22;30591;48.228;16.398;2022-07-05T10:45:34;21.00;99.90
44855;DHT22;30591;48.228;16.398;2022-07-05T10:48:22;21.00;99.90
44855;DHT22;30591;48.228;16.398;2022-07-05T10:50:59;21.10;99.90
44855;DHT22;30591;48.228;16.398;2022-07-05T11:03:47;21.00;99.90
44855;DHT22;30591;48.228;16.398;2022-07-05T11:06:25;21.00;99.90
44855;DHT22;30591;48.228;16.398;2022-07-05T11:11:35;21.10;99.90
44855;DHT22;30591;48.228;16.398;2022-07-05T11:16:48;21.00;99.90
44855;DHT22;30591;48.228;16.398;2022-07-05T11:19:17;20.90;99.90
44855;DHT22;30591;48.228;16.398;2022-07-05T11:22:07;20.90;99.90
44855;DHT22;30591;48.228;16.398;2022-07-05T11:24:36;21.00;99.90
44855;DHT22;30591;48.228;16.398;2022-07-05T11:27:09;21.20;99.90
44855;DHT22;30591;48.228;16.398;2022-07-05T11:29:53;21.10;99.90
44855;DHT22;30591;48.228;16.398;2022-07-05T11:32:21;21.20;99.90
44855;DHT22;30591;48.228;16.398;2022-07-05T11:34:53;21.10;99.90
44855;DHT22;30591;48.228;16.398;2022-07-05T11:37:27;21.00;99.90
44855;DHT22;30591;48.228;16.398;2022-07-05T11:40:36;21.10;99.90
44855;DHT22;30591;48.228;16.398;2022-07-05T11:43:04;21.20;99.90
44855;DHT22;30591;48.228;16.398;2022-07-05T11:45:34;21.20;99.90
44855;DHT22;30591;48.228;16.398;2022-07-05T11:48:03;21.30;99.90
44855;DHT22;30591;48.228;16.398;2022-07-05T11:50:32;21.20;99.90
44855;DHT22;30591;48.228;16.398;2022-07-05T11:53:00;21.10;99.90
44855;DHT22;30591;48.228;16.398;2022-07-05T11:55:31;21.10;99.90
44855;DHT22;30591;48.228;16.398;2022-07-05T11:57:58;21.30;99.90
44855;DHT22;30591;48.228;16.398;2022-07-05T12:00:29;21.40;99.90
44855;DHT22;30591;48.228;16.398;2022-07-05T12:02:57;21.40;99.90
44855;DHT22;30591;48.228;16.398;2022-07-05T12:05:29;21.30;99.90
44855;DHT22;30591;48.228;16.398;2022-07-05T12:07:56;21.50;99.90
44855;DHT22;30591;48.228;16.398;2022-07-05T12:10:23;21.60;99.90
44855;DHT22;30591;48.228;16.398;2022-07-05T12:13:28;21.70;99.90
44855;DHT22;30591;48.228;16.398;2022-07-05T12:16:00;21.80;99.90
44855;DHT22;30591;48.228;16.398;2022-07-05T12:18:55;21.90;99.90
44855;DHT22;30591;48.228;16.398;2022-07-05T12:21:23;21.80;99.90
44855;DHT22;30591;48.228;16.398;2022-07-05T12:23:51;21.90;99.90
44855;DHT22;30591;48.228;16.398;2022-07-05T12:26:19;21.90;99.90
44855;DHT22;30591;48.228;16.398;2022-07-05T12:28:48;22.00;99.90
44855;DHT22;30591;48.228;16.398;2022-07-05T12:31:20;22.10;99.90
44855;DHT22;30591;48.228;16.398;2022-07-05T12:33:48;22.10;99.90
44855;DHT22;30591;48.228;16.398;2022-07-05T12:36:18;22.20;99.90
44855;DHT22;30591;48.228;16.398;2022-07-05T12:38:46;22.30;99.90
44855;DHT22;30591;48.228;16.398;2022-07-05T12:41:21;22.20;99.90
44855;DHT22;30591;48.228;16.398;2022-07-05T12:43:50;22.20;99.90
44855;DHT22;30591;48.228;16.398;2022-07-05T12:46:18;22.40;99.90
44855;DHT22;30591;48.228;16.398;2022-07-05T12:48:51;22.40;99.90
44855;DHT22;30591;48.228;16.398;2022-07-05T12:51:34;22.50;99.90
44855;DHT22;30591;48.228;16.398;2022-07-05T12:54:04;22.70;99.90
44855;DHT22;30591;48.228;16.398;2022-07-05T12:56:53;22.70;99.90
44855;DHT22;30591;48.228;16.398;2022-07-05T13:00:04;22.70;99.90
44855;DHT22;30591;48.228;16.398;2022-07-05T13:05:02;23.00;99.90
44855;DHT22;30591;48.228;16.398;2022-07-05T13:07:29;23.00;99.90
44855;DHT22;30591;48.228;16.398;2022-07-05T13:10:26;23.00;99.90
44855;DHT22;30591;48.228;16.398;2022-07-05T13:12:55;23.10;99.90
44855;DHT22;30591;48.228;16.398;2022-07-05T13:15:22;23.00;99.90
44855;DHT22;30591;48.228;16.398;2022-07-05T13:17:49;22.70;99.90
44855;DHT22;30591;48.228;16.398;2022-07-05T13:20:17;22.60;99.90
44855;DHT22;30591;48.228;16.398;2022-07-05T13:22:47;22.70;99.90
44855;DHT22;30591;48.228;16.398;2022-07-05T13:25:14;22.80;99.90
44855;DHT22;30591;48.228;16.398;2022-07-05T13:27:41;22.80;99.90
44855;DHT22;30591;48.228;16.398;2022-07-05T13:30:09;22.60;99.90
44855;DHT22;30591;48.228;16.398;2022-07-05T13:32:36;22.40;99.90
44855;DHT22;30591;48.228;16.398;2022-07-05T13:35:03;22.50;99.90
44855;DHT22;30591;48.228;16.398;2022-07-05T13:37:30;22.40;99.90
44855;DHT22;30591;48.228;16.398;2022-07-05T13:39:57;22.30;99.90
44855;DHT22;30591;48.228;16.398;2022-07-05T13:42:24;22.20;99.90
44855;DHT22;30591;48.228;16.398;2022-07-05T13:44:51;22.10;99.90
44855;DHT22;30591;48.228;16.398;2022-07-05T13:47:19;22.30;99.90
44855;DHT22;30591;48.228;16.398;2022-07-05T13:49:46;22.20;99.90
44855;DHT22;30591;48.228;16.398;2022-07-05T13:52:13;22.20;99.90
44855;DHT22;30591;48.228;16.398;2022-07-05T13:54:39;22.10;99.90
44855;DHT22;30591;48.228;16.398;2022-07-05T13:57:10;22.10;99.90
44855;DHT22;30591;48.228;16.398;2022-07-05T13:59:37;22.10;99.90
44855;DHT22;30591;48.228;16.398;2022-07-05T14:02:04;22.00;99.90
44855;DHT22;30591;48.228;16.398;2022-07-05T14:04:31;22.10;99.90
44855;DHT22;30591;48.228;16.398;2022-07-05T14:07:01;22.10;99.90
44855;DHT22;30591;48.228;16.398;2022-07-05T14:09:27;22.00;99.90
44855;DHT22;30591;48.228;16.398;2022-07-05T14:11:55;22.20;99.90
44855;DHT22;30591;48.228;16.398;2022-07-05T14:14:22;22.20;99.90
44855;DHT22;30591;48.228;16.398;2022-07-05T14:16:49;22.30;99.90
44855;DHT22;30591;48.228;16.398;2022-07-05T14:19:16;22.30;99.90
44855;DHT22;30591;48.228;16.398;2022-07-05T14:21:43;22.30;99.90
44855;DHT22;30591;48.228;16.398;2022-07-05T14:24:14;22.30;99.90
44855;DHT22;30591;48.228;16.398;2022-07-05T14:26:40;22.30;99.90
44855;DHT22;30591;48.228;16.398;2022-07-05T14:29:08;22.30;99.90
44855;DHT22;30591;48.228;16.398;2022-07-05T14:31:35;22.30;99.90
44855;DHT22;30591;48.228;16.398;2022-07-05T14:34:03;22.20;99.90
44855;DHT22;30591;48.228;16.398;2022-07-05T14:36:30;22.20;99.90
44855;DHT22;30591;48.228;16.398;2022-07-05T14:38:57;22.20;99.90
44855;DHT22;30591;48.228;16.398;2022-07-05T14:41:26;22.20;99.90
44855;DHT22;30591;48.228;16.398;2022-07-05T14:43:54;22.20;99.90
44855;DHT22;30591;48.228;16.398;2022-07-05T14:46:21;22.20;99.90
44855;DHT22;30591;48.228;16.398;2022-07-05T14:48:48;22.20;99.90
44855;DHT22;30591;48.228;16.398;2022-07-05T14:51:15;22.30;99.90
44855;DHT22;30591;48.228;16.398;2022-07-05T14:53:42;22.30;99.90
44855;DHT22;30591;48.228;16.398;2022-07-05T14:56:13;22.30;99.90
44855;DHT22;30591;48.228;16.398;2022-07-05T14:58:41;22.40;99.90
44855;DHT22;30591;48.228;16.398;2022-07-05T15:01:08;22.40;99.90
44855;DHT22;30591;48.228;16.398;2022-07-05T15:03:35;22.40;99.90
44855;DHT22;30591;48.228;16.398;2022-07-05T15:06:02;22.50;99.90
44855;DHT22;30591;48.228;16.398;2022-07-05T15:08:30;22.70;99.90
44855;DHT22;30591;48.228;16.398;2022-07-05T15:10:57;22.70;99.90
44855;DHT22;30591;48.228;16.398;2022-07-05T15:13:25;22.70;99.90
44855;DHT22;30591;48.228;16.398;2022-07-05T15:15:53;22.80;99.90
44855;DHT22;30591;48.228;16.398;2022-07-05T15:18:20;22.70;99.90
44855;DHT22;30591;48.228;16.398;2022-07-05T15:20:48;22.70;99.90
44855;DHT22;30591;48.228;16.398;2022-07-05T15:23:15;22.70;99.90
44855;DHT22;30591;48.228;16.398;2022-07-05T15:25:43;22.80;99.90
44855;DHT22;30591;48.228;16.398;2022-07-05T15:28:10;22.90;99.90
44855;DHT22;30591;48.228;16.398;2022-07-05T15:30:38;23.30;99.90
44855;DHT22;30591;48.228;16.398;2022-07-05T15:33:04;23.60;99.90
44855;DHT22;30591;48.228;16.398;2022-07-05T15:35:34;23.60;99.90
44855;DHT22;30591;48.228;16.398;2022-07-05T15:38:00;23.50;99.90
44855;DHT22;30591;48.228;16.398;2022-07-05T15:40:28;23.50;99.90
44855;DHT22;30591;48.228;16.398;2022-07-05T15:42:55;23.50;99.90
44855;DHT22;30591;48.228;16.398;2022-07-05T15:45:22;23.40;99.90
44855;DHT22;30591;48.228;16.398;2022-07-05T15:47:49;23.40;99.90
44855;DHT22;30591;48.228;16.398;2022-07-05T15:50:16;23.30;99.90
44855;DHT22;30591;48.228;16.398;2022-07-05T15:52:43;23.30;99.90
44855;DHT22;30591;48.228;16.398;2022-07-05T15:55:11;23.50;99.90